Terminal Aerodrome Forecast
Issued by NWS

Home | Current Version | Previous Version | Text Only | Print | Product List | Glossary On
Versions: 1 2 3 4 5 6 7 8 9 10 11 12 13 14 15 16 17 18 19 20 21 22 23 24 25 26 27 28 29 30 31
000
FTUS41 KBGM 161200 AAA
TAFELM
TAF AMD
KELM 161257Z 1613/1712 35010G18KT P6SM SCT030
     FM161900 36007KT P6SM SKC
     FM170000 VRB03KT P6SM SKC
     FM170600 11005KT P6SM FEW250=

USA.gov is the U.S. government's official web portal to all federal, state and local government web resources and services.